createdAt,value
2022-11-14T00:01:30.525Z,2.61
2022-11-14T00:03:58.633Z,2.62
2022-11-14T00:06:26.662Z,2.58
2022-11-14T00:08:56.054Z,2.55
2022-11-14T00:11:24.053Z,2.58
2022-11-14T00:13:52.076Z,2.58
2022-11-14T00:16:20.057Z,2.55
2022-11-14T00:18:48.092Z,2.53
2022-11-14T00:21:16.205Z,2.53
2022-11-14T00:23:44.239Z,2.58
2022-11-14T00:26:13.642Z,2.63
2022-11-14T00:28:41.632Z,2.58
2022-11-14T00:31:10.790Z,2.59
2022-11-14T00:33:39.467Z,2.63
2022-11-14T00:36:07.995Z,2.68
2022-11-14T00:38:36.001Z,2.68
2022-11-14T00:41:04.017Z,2.63
2022-11-14T00:43:33.491Z,2.62
2022-11-14T00:46:01.491Z,2.58
2022-11-14T00:48:29.725Z,2.53
2022-11-14T00:50:57.948Z,2.53
2022-11-14T00:53:25.949Z,2.55
2022-11-14T00:55:54.047Z,2.57
2022-11-14T00:58:22.028Z,2.61
2022-11-14T01:00:51.635Z,2.63
2022-11-14T01:03:19.825Z,2.58
2022-11-14T01:05:51.352Z,2.59
2022-11-14T01:08:20.938Z,2.56
2022-11-14T01:10:50.900Z,2.58
2022-11-14T01:13:19.946Z,2.58
2022-11-14T01:15:49.986Z,2.54
2022-11-14T01:18:21.422Z,2.54
2022-11-14T01:20:50.507Z,2.59
2022-11-14T01:23:18.781Z,2.53
2022-11-14T01:25:46.984Z,2.51
2022-11-14T01:28:17.993Z,2.50
2022-11-14T01:30:46.701Z,2.59
2022-11-14T01:33:14.734Z,2.62
2022-11-14T01:35:44.146Z,2.61
2022-11-14T01:38:14.873Z,2.57
2022-11-14T01:40:44.029Z,2.60
2022-11-14T01:43:36.352Z,2.57
2022-11-14T01:46:05.949Z,2.72
2022-11-14T01:48:41.243Z,2.74
2022-11-14T01:51:21.129Z,2.76
2022-11-14T01:53:52.189Z,2.84
2022-11-14T01:56:25.570Z,2.89
2022-11-14T01:59:01.816Z,2.86
2022-11-14T02:01:33.867Z,2.86
2022-11-14T02:04:06.455Z,2.86
2022-11-14T02:06:37.745Z,2.85
2022-11-14T02:09:07.764Z,2.83
2022-11-14T02:11:39.846Z,2.88
2022-11-14T02:14:08.569Z,2.82
2022-11-14T02:16:37.032Z,2.86
2022-11-14T02:19:06.578Z,2.92
2022-11-14T02:21:36.109Z,2.84
2022-11-14T02:24:04.123Z,2.80
2022-11-14T02:26:36.655Z,2.89
2022-11-14T02:29:04.770Z,2.88
2022-11-14T02:31:32.775Z,2.88
2022-11-14T02:34:00.829Z,2.89
2022-11-14T02:36:28.949Z,2.92
2022-11-14T02:38:58.367Z,2.83
2022-11-14T02:41:26.464Z,2.90
2022-11-14T02:43:54.480Z,2.95
2022-11-14T02:46:22.516Z,2.92
2022-11-14T02:48:50.527Z,2.82
2022-11-14T02:51:18.525Z,2.89
2022-11-14T02:53:46.618Z,2.79
2022-11-14T02:56:16.062Z,2.73
2022-11-14T02:58:44.167Z,2.68
2022-11-14T03:01:20.998Z,2.71
2022-11-14T03:03:49.788Z,2.62
2022-11-14T03:06:17.904Z,2.59
2022-11-14T03:08:45.984Z,2.59
2022-11-14T03:11:15.454Z,2.46
2022-11-14T03:13:43.524Z,2.39
2022-11-14T03:16:13.476Z,2.37
2022-11-14T03:18:41.841Z,2.26
2022-11-14T03:21:11.941Z,2.24
2022-11-14T03:23:40.011Z,2.23
2022-11-14T03:26:10.591Z,2.18
2022-11-14T03:28:40.820Z,2.14
2022-11-14T03:31:10.398Z,2.12
2022-11-14T03:33:38.643Z,2.06
2022-11-14T03:36:07.942Z,2.04
2022-11-14T03:38:36.348Z,2.06
2022-11-14T03:41:04.446Z,2.10
2022-11-14T03:43:34.156Z,2.04
2022-11-14T03:46:04.525Z,2.02
2022-11-14T03:48:33.019Z,2.05
2022-11-14T03:51:01.177Z,1.98
2022-11-14T03:53:29.523Z,2.02
2022-11-14T03:55:57.548Z,2.03
2022-11-14T03:58:25.605Z,2.07
2022-11-14T04:00:55.940Z,2.00
2022-11-14T04:03:26.053Z,1.98
2022-11-14T04:05:54.116Z,1.97
2022-11-14T04:08:22.142Z,1.92
2022-11-14T04:10:50.708Z,1.88
2022-11-14T04:13:18.776Z,1.87
2022-11-14T04:15:46.742Z,1.87
2022-11-14T04:18:14.727Z,1.86
2022-11-14T04:20:44.109Z,1.84
2022-11-14T04:23:12.106Z,1.92
2022-11-14T04:25:40.115Z,2.02
2022-11-14T04:28:08.152Z,1.97
2022-11-14T04:30:37.522Z,1.96
2022-11-14T04:33:05.800Z,1.93
2022-11-14T04:35:33.800Z,1.88
2022-11-14T04:38:03.187Z,1.83
2022-11-14T04:40:31.314Z,1.81
2022-11-14T04:42:59.383Z,1.75
2022-11-14T04:45:27.501Z,1.76
2022-11-14T04:47:55.584Z,1.74
2022-11-14T04:50:23.746Z,1.73
2022-11-14T04:52:53.701Z,1.68
2022-11-14T04:55:23.140Z,1.72
2022-11-14T04:57:55.404Z,1.83
2022-11-14T05:00:23.747Z,1.81
2022-11-14T05:02:51.808Z,1.80
2022-11-14T05:05:19.855Z,1.89
2022-11-14T05:07:47.858Z,2.07
2022-11-14T05:10:15.871Z,2.19
2022-11-14T05:12:45.415Z,2.25
2022-11-14T05:15:13.487Z,2.64
2022-11-14T05:17:41.619Z,2.76
2022-11-14T05:20:10.594Z,3.05
2022-11-14T05:22:38.945Z,3.18
2022-11-14T05:25:08.143Z,3.24
2022-11-14T05:27:36.451Z,3.25
2022-11-14T05:30:06.634Z,3.19
2022-11-14T05:32:34.625Z,3.08
2022-11-14T05:35:02.907Z,2.99
2022-11-14T05:37:30.881Z,2.82
2022-11-14T05:39:58.960Z,2.74
2022-11-14T05:42:28.603Z,2.65
2022-11-14T05:44:56.719Z,2.72
2022-11-14T05:47:26.432Z,2.62
2022-11-14T05:49:54.521Z,2.65
2022-11-14T05:52:22.618Z,2.59
2022-11-14T05:54:50.611Z,2.57
2022-11-14T05:57:18.709Z,2.59
2022-11-14T05:59:46.662Z,2.60
2022-11-14T06:02:14.867Z,2.57
2022-11-14T06:04:44.378Z,2.60
2022-11-14T06:07:16.235Z,2.64
2022-11-14T06:09:46.898Z,2.62
2022-11-14T06:12:14.890Z,2.85
2022-11-14T06:14:42.846Z,2.92
2022-11-14T06:17:10.938Z,2.99
2022-11-14T06:19:39.016Z,3.03
2022-11-14T06:22:09.526Z,3.01
2022-11-14T06:24:39.130Z,3.00
2022-11-14T06:27:07.125Z,2.97
2022-11-14T06:29:35.758Z,3.01
2022-11-14T06:32:03.912Z,3.17
2022-11-14T06:34:31.859Z,3.21
2022-11-14T06:36:59.903Z,3.32
2022-11-14T06:39:29.280Z,3.41
2022-11-14T06:41:57.353Z,3.49
2022-11-14T06:44:30.640Z,3.57
2022-11-14T06:46:59.143Z,3.71
2022-11-14T06:49:28.008Z,3.72
2022-11-14T06:51:59.247Z,3.78
2022-11-14T06:54:27.458Z,3.83
2022-11-14T06:56:57.041Z,3.96
2022-11-14T06:59:25.003Z,4.04
2022-11-14T07:01:52.987Z,4.10
2022-11-14T07:04:20.995Z,4.12
2022-11-14T07:06:49.031Z,4.21
2022-11-14T07:09:17.556Z,4.30
2022-11-14T07:11:46.961Z,4.39
2022-11-14T07:14:16.432Z,4.52
2022-11-14T07:16:44.408Z,4.57
2022-11-14T07:19:12.695Z,4.65
2022-11-14T07:21:41.473Z,4.81
2022-11-14T07:24:09.590Z,4.85
2022-11-14T07:26:37.586Z,4.98
2022-11-14T07:29:05.705Z,5.07
2022-11-14T07:31:35.098Z,5.19
2022-11-14T07:34:03.063Z,5.26
2022-11-14T07:36:33.643Z,5.40
2022-11-14T07:39:01.631Z,5.61
2022-11-14T07:41:29.673Z,5.84
2022-11-14T07:43:57.721Z,6.01
2022-11-14T07:46:25.688Z,6.17
2022-11-14T07:48:56.118Z,6.31
2022-11-14T07:51:24.101Z,6.43
2022-11-14T07:53:53.324Z,6.55
2022-11-14T07:56:22.337Z,6.64
2022-11-14T07:58:50.338Z,6.64
2022-11-14T08:01:18.761Z,6.69
2022-11-14T08:03:46.962Z,6.78
2022-11-14T08:06:17.749Z,6.90
2022-11-14T08:08:45.766Z,6.95
2022-11-14T08:11:23.051Z,7.00
2022-11-14T08:14:01.934Z,7.05
2022-11-14T08:16:29.932Z,6.98
2022-11-14T08:18:57.944Z,7.00
2022-11-14T08:21:28.553Z,7.09
2022-11-14T08:23:56.623Z,7.09
2022-11-14T08:26:26.306Z,7.14
2022-11-14T08:28:55.999Z,7.18
2022-11-14T08:31:24.318Z,7.28
2022-11-14T08:33:53.307Z,7.48
2022-11-14T08:36:21.602Z,7.50
2022-11-14T08:38:51.765Z,7.59
2022-11-14T08:41:20.268Z,7.66
2022-11-14T08:43:48.255Z,7.69
2022-11-14T08:46:16.437Z,7.78
2022-11-14T08:48:44.425Z,7.72
2022-11-14T08:51:12.476Z,7.79
2022-11-14T08:53:40.572Z,7.74
2022-11-14T08:56:12.838Z,7.72
2022-11-14T08:58:40.847Z,7.77
2022-11-14T09:01:09.240Z,7.72
2022-11-14T09:03:37.507Z,7.82
2022-11-14T09:06:05.752Z,7.94
2022-11-14T09:08:33.923Z,7.99
2022-11-14T09:11:05.875Z,8.00
2022-11-14T09:13:37.263Z,8.04
2022-11-14T09:16:05.534Z,8.01
2022-11-14T09:18:33.755Z,8.14
2022-11-14T09:21:02.872Z,8.15
2022-11-14T09:23:31.444Z,8.20
2022-11-14T09:25:59.821Z,8.21
2022-11-14T09:28:27.835Z,8.23
2022-11-14T09:31:01.590Z,8.24
2022-11-14T09:33:30.766Z,8.35
2022-11-14T09:35:59.412Z,8.35
2022-11-14T09:38:28.253Z,8.40
2022-11-14T09:41:06.620Z,8.48
2022-11-14T09:44:03.195Z,8.53
2022-11-14T09:46:38.902Z,8.54
2022-11-14T09:49:15.115Z,8.66
2022-11-14T09:51:52.069Z,8.76
2022-11-14T09:54:24.223Z,8.75
2022-11-14T09:56:53.351Z,8.76
2022-11-14T09:59:21.476Z,8.86
2022-11-14T10:02:06.374Z,8.97
2022-11-14T10:04:51.104Z,8.99
2022-11-14T10:07:31.245Z,9.08
2022-11-14T10:10:09.246Z,9.03
2022-11-14T10:12:44.704Z,9.02
2022-11-14T10:15:23.649Z,8.96
2022-11-14T10:18:05.521Z,9.05
2022-11-14T10:20:40.249Z,9.03
2022-11-14T10:23:22.261Z,9.05
2022-11-14T10:25:56.775Z,9.11
2022-11-14T10:28:39.882Z,9.06
2022-11-14T10:31:21.171Z,9.12
2022-11-14T10:33:58.979Z,9.19
2022-11-14T10:36:42.211Z,9.19
2022-11-14T10:39:19.087Z,9.20
2022-11-14T10:41:58.077Z,9.23
2022-11-14T10:44:35.592Z,9.34
2022-11-14T10:47:07.761Z,9.38
2022-11-14T10:49:39.031Z,9.52
2022-11-14T10:52:13.840Z,9.60
2022-11-14T10:54:47.072Z,9.62
2022-11-14T10:57:18.552Z,9.72
2022-11-14T10:59:47.445Z,9.81
2022-11-14T11:02:15.689Z,9.88
2022-11-14T11:04:47.178Z,9.94
2022-11-14T11:07:40.086Z,9.93
2022-11-14T11:10:37.585Z,9.97
2022-11-14T11:13:05.682Z,10.00
2022-11-14T11:15:41.917Z,10.03
2022-11-14T11:18:27.989Z,10.05
2022-11-14T11:21:13.111Z,10.16
2022-11-14T11:23:50.814Z,10.22
2022-11-14T11:26:25.309Z,10.21
2022-11-14T11:29:09.014Z,10.35
2022-11-14T11:31:54.727Z,10.40
2022-11-14T11:34:26.488Z,10.41
2022-11-14T11:37:02.729Z,10.32
2022-11-14T11:39:33.381Z,10.36
2022-11-14T11:42:09.797Z,10.35
2022-11-14T11:44:45.799Z,10.43
2022-11-14T11:47:18.193Z,10.53
2022-11-14T11:49:53.425Z,10.61
2022-11-14T11:52:32.359Z,10.75
2022-11-14T11:55:05.025Z,10.77
2022-11-14T11:57:35.808Z,10.82
2022-11-14T12:00:16.133Z,10.83
2022-11-14T12:02:49.997Z,10.89
2022-11-14T12:05:24.986Z,10.97
2022-11-14T12:08:01.518Z,10.96
2022-11-14T12:10:33.573Z,10.98
2022-11-14T12:13:25.943Z,11.03
2022-11-14T12:16:11.666Z,11.16
2022-11-14T12:18:57.265Z,11.15
2022-11-14T12:22:03.976Z,11.18
2022-11-14T12:25:19.917Z,11.24
2022-11-14T12:28:11.873Z,11.29
2022-11-14T12:30:42.756Z,11.28
2022-11-14T12:33:14.570Z,11.31
2022-11-14T12:35:51.481Z,11.34
2022-11-14T12:38:21.168Z,11.39
2022-11-14T12:40:55.400Z,11.48
2022-11-14T12:43:37.230Z,11.43
2022-11-14T12:46:11.651Z,11.51
2022-11-14T12:48:41.200Z,11.52
2022-11-14T12:51:42.348Z,11.58
2022-11-14T12:54:46.260Z,11.64
2022-11-14T12:57:38.494Z,11.60
2022-11-14T13:00:09.940Z,11.65
2022-11-14T13:03:19.882Z,11.62
2022-11-14T13:05:58.420Z,11.59
2022-11-14T13:09:13.976Z,11.56
2022-11-14T13:12:01.904Z,11.55
2022-11-14T13:14:48.899Z,11.52
2022-11-14T13:17:46.366Z,11.59
2022-11-14T13:20:50.310Z,11.58
2022-11-14T13:23:57.059Z,11.60
2022-11-14T13:26:48.593Z,11.58
2022-11-14T13:29:58.560Z,11.53
2022-11-14T13:32:56.045Z,11.55
2022-11-14T13:35:38.403Z,11.47
2022-11-14T13:38:48.332Z,11.49
2022-11-14T13:41:46.903Z,11.50
2022-11-14T13:44:39.270Z,11.42
2022-11-14T13:47:28.358Z,11.29
2022-11-14T13:50:05.353Z,11.31
2022-11-14T13:52:35.307Z,11.28
2022-11-14T13:55:04.683Z,11.25
2022-11-14T13:57:50.584Z,11.17
2022-11-14T14:00:21.197Z,11.12
2022-11-14T14:03:20.205Z,11.11
2022-11-14T14:06:18.451Z,11.04
2022-11-14T14:09:06.701Z,10.99
2022-11-14T14:11:46.157Z,10.97
2022-11-14T14:14:35.153Z,10.87
2022-11-14T14:17:08.875Z,10.87
2022-11-14T14:19:51.807Z,10.89
2022-11-14T14:22:24.773Z,10.79
2022-11-14T14:24:59.380Z,10.65
2022-11-14T14:27:35.269Z,10.51
2022-11-14T14:30:09.762Z,10.44
2022-11-14T14:32:38.119Z,10.32
2022-11-14T14:35:32.579Z,10.19
2022-11-14T14:38:11.097Z,10.16
2022-11-14T14:40:41.877Z,10.09
2022-11-14T14:43:25.103Z,9.95
2022-11-14T14:45:54.603Z,9.95
2022-11-14T14:48:26.821Z,9.84
2022-11-14T14:50:56.788Z,9.71
2022-11-14T14:53:28.100Z,9.53
2022-11-14T14:55:58.302Z,9.42
2022-11-14T14:58:29.832Z,9.29
2022-11-14T15:01:01.072Z,9.24
2022-11-14T15:03:36.948Z,9.18
2022-11-14T15:06:07.798Z,9.14
2022-11-14T15:08:40.065Z,9.09
2022-11-14T15:11:09.000Z,8.93
2022-11-14T15:13:38.860Z,8.87
2022-11-14T15:16:09.382Z,8.74
2022-11-14T15:18:38.115Z,8.74
2022-11-14T15:21:12.076Z,8.71
2022-11-14T15:23:42.423Z,8.62
2022-11-14T15:26:16.861Z,8.48
2022-11-14T15:28:45.342Z,8.43
2022-11-14T15:31:22.056Z,8.42
2022-11-14T15:34:03.488Z,8.36
2022-11-14T15:36:31.685Z,8.27
2022-11-14T15:39:03.661Z,8.17
2022-11-14T15:41:32.614Z,8.17
2022-11-14T15:44:03.419Z,8.10
2022-11-14T15:46:41.264Z,7.98
2022-11-14T15:49:11.581Z,7.91
2022-11-14T15:51:43.541Z,7.92
2022-11-14T15:54:28.197Z,7.82
2022-11-14T15:56:58.010Z,7.74
2022-11-14T15:59:27.122Z,7.69
2022-11-14T16:01:59.775Z,7.61
2022-11-14T16:04:31.811Z,7.53
2022-11-14T16:07:00.440Z,7.45
2022-11-14T16:09:29.861Z,7.36
2022-11-14T16:11:57.893Z,7.27
2022-11-14T16:14:25.878Z,7.20
2022-11-14T16:16:53.902Z,7.14
2022-11-14T16:19:22.238Z,7.10
2022-11-14T16:21:50.387Z,7.03
2022-11-14T16:24:20.359Z,7.00
2022-11-14T16:26:50.901Z,6.93
2022-11-14T16:29:18.952Z,6.87
2022-11-14T16:31:47.376Z,6.88
2022-11-14T16:34:19.747Z,6.83
2022-11-14T16:36:48.799Z,6.82
2022-11-14T16:39:17.112Z,6.78
2022-11-14T16:41:45.175Z,6.71
2022-11-14T16:44:18.911Z,6.63
2022-11-14T16:46:47.896Z,6.57
2022-11-14T16:49:17.448Z,6.52
2022-11-14T16:51:48.205Z,6.56
2022-11-14T16:54:17.693Z,6.58
2022-11-14T16:56:45.811Z,6.49
2022-11-14T16:59:14.282Z,6.42
2022-11-14T17:01:44.408Z,6.44
2022-11-14T17:04:12.791Z,6.37
2022-11-14T17:06:41.452Z,6.34
2022-11-14T17:09:09.605Z,6.28
2022-11-14T17:11:37.689Z,6.17
2022-11-14T17:14:12.309Z,6.08
2022-11-14T17:16:49.448Z,6.00
2022-11-14T17:19:26.207Z,6.00
2022-11-14T17:21:54.278Z,5.98
2022-11-14T17:24:25.035Z,5.94
2022-11-14T17:26:56.772Z,5.94
2022-11-14T17:29:24.791Z,5.93
2022-11-14T17:31:52.984Z,5.90
2022-11-14T17:34:22.904Z,5.85
2022-11-14T17:36:51.876Z,5.79
2022-11-14T17:39:20.332Z,5.79
2022-11-14T17:41:48.491Z,5.78
2022-11-14T17:44:16.732Z,5.79
2022-11-14T17:46:45.324Z,5.81
2022-11-14T17:49:13.419Z,5.78
2022-11-14T17:51:43.599Z,5.69
2022-11-14T17:54:11.956Z,5.59
2022-11-14T17:56:46.484Z,5.53
2022-11-14T17:59:16.700Z,5.47
2022-11-14T18:01:44.901Z,5.44
2022-11-14T18:04:13.492Z,5.41
2022-11-14T18:06:42.993Z,5.38
2022-11-14T18:09:14.468Z,5.35
2022-11-14T18:11:43.255Z,5.42
2022-11-14T18:14:12.320Z,5.37
2022-11-14T18:17:05.876Z,5.29
2022-11-14T18:19:29.416Z,5.24
2022-11-14T18:21:59.336Z,5.27
2022-11-14T18:24:27.410Z,5.28
2022-11-14T18:26:55.964Z,5.27
2022-11-14T18:29:24.119Z,5.22
2022-11-14T18:31:52.482Z,5.27
2022-11-14T18:34:24.520Z,5.24
2022-11-14T18:36:53.101Z,5.15
2022-11-14T18:39:22.799Z,5.08
2022-11-14T18:41:50.992Z,5.00
2022-11-14T18:44:21.460Z,5.04
2022-11-14T18:46:49.884Z,5.05
2022-11-14T18:49:18.554Z,5.00
2022-11-14T18:51:47.022Z,4.99
2022-11-14T18:54:18.019Z,4.95
2022-11-14T18:56:47.853Z,4.98
2022-11-14T18:59:16.358Z,4.96
2022-11-14T19:01:44.969Z,4.88
2022-11-14T19:04:14.444Z,4.89
2022-11-14T19:06:42.928Z,4.83
2022-11-14T19:09:15.186Z,4.81
2022-11-14T19:12:01.346Z,4.73
2022-11-14T19:14:31.140Z,4.66
2022-11-14T19:17:00.059Z,4.61
2022-11-14T19:19:28.645Z,4.60
2022-11-14T19:21:59.044Z,4.64
2022-11-14T19:24:27.519Z,4.57
2022-11-14T19:26:57.471Z,4.49
2022-11-14T19:29:25.876Z,4.56
2022-11-14T19:31:55.745Z,4.46
2022-11-14T19:34:24.179Z,4.47
2022-11-14T19:37:00.043Z,4.47
2022-11-14T19:39:29.497Z,4.39
2022-11-14T19:41:58.536Z,4.35
2022-11-14T19:44:27.079Z,4.27
2022-11-14T19:46:56.581Z,4.24
2022-11-14T19:49:24.948Z,4.14
2022-11-14T19:51:53.604Z,4.18
2022-11-14T19:54:22.651Z,4.14
2022-11-14T19:56:52.360Z,4.10
2022-11-14T19:59:24.439Z,4.03
2022-11-14T20:01:55.870Z,4.00
2022-11-14T20:04:26.606Z,3.92
2022-11-14T20:06:58.169Z,3.93
2022-11-14T20:09:29.460Z,3.89
2022-11-14T20:11:58.064Z,3.91
2022-11-14T20:14:26.605Z,3.83
2022-11-14T20:16:54.686Z,3.79
2022-11-14T20:19:23.117Z,3.79
2022-11-14T20:21:56.251Z,3.78
2022-11-14T20:24:26.976Z,3.80
2022-11-14T20:26:57.896Z,3.81
2022-11-14T20:29:26.170Z,3.84
2022-11-14T20:31:54.253Z,3.91
2022-11-14T20:34:23.484Z,3.87
2022-11-14T20:39:42.137Z,3.89
2022-11-14T20:42:10.612Z,3.84
2022-11-14T20:44:40.189Z,3.81
2022-11-14T20:47:10.964Z,3.84
2022-11-14T20:49:42.977Z,3.88
2022-11-14T20:52:15.705Z,3.78
2022-11-14T20:54:45.209Z,3.83
2022-11-14T20:57:13.719Z,3.94
2022-11-14T20:59:41.843Z,3.95
2022-11-14T21:02:12.616Z,3.98
2022-11-14T21:04:40.740Z,3.97
2022-11-14T21:07:10.524Z,3.96
2022-11-14T21:09:38.695Z,3.96
2022-11-14T21:12:08.409Z,3.95
2022-11-14T21:14:36.538Z,4.00
2022-11-14T21:17:04.846Z,4.04
2022-11-14T21:19:33.297Z,4.00
2022-11-14T21:22:04.424Z,3.93
2022-11-14T21:24:35.658Z,3.91
2022-11-14T21:27:13.146Z,3.91
2022-11-14T21:29:41.721Z,3.87
2022-11-14T21:32:09.865Z,3.86
2022-11-14T21:34:37.929Z,3.90
2022-11-14T21:37:05.933Z,3.84
2022-11-14T21:39:36.329Z,3.75
2022-11-14T21:42:07.347Z,3.73
2022-11-14T21:44:36.803Z,3.69
2022-11-14T21:47:04.908Z,3.70
2022-11-14T21:49:33.109Z,3.76
2022-11-14T21:52:01.197Z,3.65
2022-11-14T21:54:29.513Z,3.65
2022-11-14T21:56:57.483Z,3.62
2022-11-14T21:59:27.695Z,3.60
2022-11-14T22:02:14.570Z,3.59
2022-11-14T22:04:42.597Z,3.51
2022-11-14T22:07:10.672Z,3.50
2022-11-14T22:09:44.940Z,3.46
2022-11-14T22:12:13.468Z,3.43
2022-11-14T22:14:42.939Z,3.36
2022-11-14T22:17:12.493Z,3.28
2022-11-14T22:19:42.384Z,3.22
2022-11-14T22:22:10.790Z,3.24
2022-11-14T22:24:39.053Z,3.18
2022-11-14T22:27:07.573Z,3.11
2022-11-14T22:29:36.010Z,3.08
2022-11-14T22:32:04.653Z,3.09
2022-11-14T22:34:34.202Z,3.05
2022-11-14T22:37:04.713Z,2.97
2022-11-14T22:39:32.794Z,2.95
2022-11-14T22:42:00.788Z,3.07
2022-11-14T22:44:28.763Z,2.98
2022-11-14T22:46:56.790Z,2.95
2022-11-14T22:49:24.758Z,2.84
2022-11-14T22:51:54.102Z,2.78
2022-11-14T22:54:22.121Z,2.73
2022-11-14T22:56:50.086Z,2.70
2022-11-14T22:59:18.059Z,2.65
2022-11-14T23:01:46.115Z,2.62
2022-11-14T23:04:14.412Z,2.59
2022-11-14T23:06:42.684Z,2.53
2022-11-14T23:09:12.361Z,2.54
2022-11-14T23:11:40.797Z,2.55
2022-11-14T23:14:09.294Z,2.59
2022-11-14T23:16:37.592Z,2.64
2022-11-14T23:19:06.533Z,2.69
2022-11-14T23:21:36.966Z,2.75
2022-11-14T23:24:08.563Z,2.78
2022-11-14T23:26:38.287Z,2.84
2022-11-14T23:29:06.506Z,2.91
2022-11-14T23:31:34.764Z,2.84
2022-11-14T23:34:02.940Z,2.76
2022-11-14T23:36:31.260Z,2.68
2022-11-14T23:38:59.623Z,2.59
2022-11-14T23:41:27.901Z,2.61
2022-11-14T23:43:57.627Z,2.58
2022-11-14T23:46:26.873Z,2.63
2022-11-14T23:48:55.080Z,2.70
2022-11-14T23:51:23.365Z,2.74
2022-11-14T23:53:52.154Z,2.83
2022-11-14T23:56:20.474Z,2.88
2022-11-14T23:58:48.909Z,2.94
